sensor_id;sensor_type;location;lat;lon;timestamp;P1;durP1;ratioP1;P2;durP2;ratioP2
6475;SDS011;3271;51.910;5.840;2023-07-24T00:02:13;2.15;;;1.67;;
6475;SDS011;3271;51.910;5.840;2023-07-24T00:04:39;2.08;;;1.50;;
6475;SDS011;3271;51.910;5.840;2023-07-24T00:07:05;1.48;;;1.38;;
6475;SDS011;3271;51.910;5.840;2023-07-24T00:09:31;2.20;;;2.05;;
6475;SDS011;3271;51.910;5.840;2023-07-24T00:11:57;2.17;;;1.90;;
6475;SDS011;3271;51.910;5.840;2023-07-24T00:14:23;5.03;;;1.50;;
6475;SDS011;3271;51.910;5.840;2023-07-24T00:16:50;1.73;;;1.35;;
6475;SDS011;3271;51.910;5.840;2023-07-24T00:19:16;2.22;;;1.90;;
6475;SDS011;3271;51.910;5.840;2023-07-24T00:21:42;2.50;;;1.90;;
6475;SDS011;3271;51.910;5.840;2023-07-24T00:24:07;3.25;;;1.80;;
6475;SDS011;3271;51.910;5.840;2023-07-24T00:26:33;3.05;;;1.70;;
6475;SDS011;3271;51.910;5.840;2023-07-24T00:28:59;1.83;;;1.70;;
6475;SDS011;3271;51.910;5.840;2023-07-24T00:31:26;2.35;;;1.70;;
6475;SDS011;3271;51.910;5.840;2023-07-24T00:33:51;4.57;;;2.00;;
6475;SDS011;3271;51.910;5.840;2023-07-24T00:36:17;3.00;;;1.90;;
6475;SDS011;3271;51.910;5.840;2023-07-24T00:38:43;1.70;;;1.60;;
6475;SDS011;3271;51.910;5.840;2023-07-24T00:41:09;3.33;;;1.30;;
6475;SDS011;3271;51.910;5.840;2023-07-24T00:43:35;1.80;;;1.70;;
6475;SDS011;3271;51.910;5.840;2023-07-24T00:46:01;1.77;;;1.55;;
6475;SDS011;3271;51.910;5.840;2023-07-24T00:48:28;1.88;;;1.60;;
6475;SDS011;3271;51.910;5.840;2023-07-24T00:50:54;1.67;;;1.58;;
6475;SDS011;3271;51.910;5.840;2023-07-24T00:53:19;3.38;;;1.67;;
6475;SDS011;3271;51.910;5.840;2023-07-24T00:55:46;1.73;;;1.63;;
6475;SDS011;3271;51.910;5.840;2023-07-24T00:58:12;2.72;;;1.75;;
6475;SDS011;3271;51.910;5.840;2023-07-24T01:00:38;2.00;;;1.80;;
6475;SDS011;3271;51.910;5.840;2023-07-24T01:03:05;3.28;;;1.52;;
6475;SDS011;3271;51.910;5.840;2023-07-24T01:05:31;2.22;;;1.67;;
6475;SDS011;3271;51.910;5.840;2023-07-24T01:07:57;2.85;;;1.88;;
6475;SDS011;3271;51.910;5.840;2023-07-24T01:10:23;2.65;;;1.90;;
6475;SDS011;3271;51.910;5.840;2023-07-24T01:12:51;2.95;;;1.95;;
6475;SDS011;3271;51.910;5.840;2023-07-24T01:18:06;2.33;;;2.08;;
6475;SDS011;3271;51.910;5.840;2023-07-24T01:20:33;2.30;;;2.10;;
6475;SDS011;3271;51.910;5.840;2023-07-24T01:25:55;5.32;;;1.92;;
6475;SDS011;3271;51.910;5.840;2023-07-24T01:28:22;4.07;;;2.15;;
6475;SDS011;3271;51.910;5.840;2023-07-24T01:30:48;3.40;;;2.38;;
6475;SDS011;3271;51.910;5.840;2023-07-24T01:33:14;3.15;;;2.28;;
6475;SDS011;3271;51.910;5.840;2023-07-24T01:35:40;2.33;;;2.13;;
6475;SDS011;3271;51.910;5.840;2023-07-24T01:38:08;3.05;;;2.33;;
6475;SDS011;3271;51.910;5.840;2023-07-24T01:40:35;3.10;;;2.50;;
6475;SDS011;3271;51.910;5.840;2023-07-24T01:43:03;2.20;;;2.00;;
6475;SDS011;3271;51.910;5.840;2023-07-24T01:45:29;2.08;;;1.90;;
6475;SDS011;3271;51.910;5.840;2023-07-24T01:47:55;2.53;;;2.20;;
6475;SDS011;3271;51.910;5.840;2023-07-24T01:50:21;3.80;;;2.28;;
6475;SDS011;3271;51.910;5.840;2023-07-24T01:52:47;3.15;;;2.83;;
6475;SDS011;3271;51.910;5.840;2023-07-24T01:55:13;2.88;;;2.35;;
6475;SDS011;3271;51.910;5.840;2023-07-24T01:57:39;2.55;;;2.35;;
6475;SDS011;3271;51.910;5.840;2023-07-24T02:00:05;4.05;;;2.17;;
6475;SDS011;3271;51.910;5.840;2023-07-24T02:02:31;3.90;;;2.47;;
6475;SDS011;3271;51.910;5.840;2023-07-24T02:04:57;2.65;;;2.38;;
6475;SDS011;3271;51.910;5.840;2023-07-24T02:07:23;3.78;;;2.42;;
6475;SDS011;3271;51.910;5.840;2023-07-24T02:09:49;2.92;;;2.55;;
6475;SDS011;3271;51.910;5.840;2023-07-24T02:12:15;3.70;;;2.75;;
6475;SDS011;3271;51.910;5.840;2023-07-24T02:14:41;2.30;;;2.10;;
6475;SDS011;3271;51.910;5.840;2023-07-24T02:17:07;2.38;;;2.17;;
6475;SDS011;3271;51.910;5.840;2023-07-24T02:19:33;3.00;;;2.22;;
6475;SDS011;3271;51.910;5.840;2023-07-24T02:21:59;4.22;;;2.50;;
6475;SDS011;3271;51.910;5.840;2023-07-24T02:24:25;3.90;;;2.63;;
6475;SDS011;3271;51.910;5.840;2023-07-24T02:26:51;5.20;;;2.30;;
6475;SDS011;3271;51.910;5.840;2023-07-24T02:29:16;3.28;;;2.95;;
6475;SDS011;3271;51.910;5.840;2023-07-24T02:31:42;3.17;;;2.90;;
6475;SDS011;3271;51.910;5.840;2023-07-24T02:34:08;2.75;;;2.55;;
6475;SDS011;3271;51.910;5.840;2023-07-24T02:36:34;3.83;;;2.97;;
6475;SDS011;3271;51.910;5.840;2023-07-24T02:39:01;3.33;;;3.00;;
6475;SDS011;3271;51.910;5.840;2023-07-24T02:41:27;3.10;;;2.83;;
6475;SDS011;3271;51.910;5.840;2023-07-24T02:43:53;3.63;;;2.90;;
6475;SDS011;3271;51.910;5.840;2023-07-24T02:46:19;3.10;;;2.80;;
6475;SDS011;3271;51.910;5.840;2023-07-24T02:48:45;3.65;;;2.95;;
6475;SDS011;3271;51.910;5.840;2023-07-24T02:51:11;3.58;;;3.08;;
6475;SDS011;3271;51.910;5.840;2023-07-24T02:53:37;3.10;;;2.80;;
6475;SDS011;3271;51.910;5.840;2023-07-24T02:56:03;3.15;;;2.85;;
6475;SDS011;3271;51.910;5.840;2023-07-24T02:58:28;3.33;;;3.03;;
6475;SDS011;3271;51.910;5.840;2023-07-24T03:01:01;4.25;;;2.92;;
6475;SDS011;3271;51.910;5.840;2023-07-24T03:03:28;4.65;;;3.20;;
6475;SDS011;3271;51.910;5.840;2023-07-24T03:05:54;4.18;;;3.78;;
6475;SDS011;3271;51.910;5.840;2023-07-24T03:08:20;5.93;;;3.40;;
6475;SDS011;3271;51.910;5.840;2023-07-24T03:10:45;5.22;;;3.13;;
6475;SDS011;3271;51.910;5.840;2023-07-24T03:13:11;3.92;;;3.22;;
6475;SDS011;3271;51.910;5.840;2023-07-24T03:15:37;3.60;;;3.20;;
6475;SDS011;3271;51.910;5.840;2023-07-24T03:18:03;3.42;;;3.13;;
6475;SDS011;3271;51.910;5.840;2023-07-24T03:20:29;3.78;;;2.63;;
6475;SDS011;3271;51.910;5.840;2023-07-24T03:22:55;3.25;;;2.95;;
6475;SDS011;3271;51.910;5.840;2023-07-24T03:25:21;2.80;;;2.60;;
6475;SDS011;3271;51.910;5.840;2023-07-24T03:27:47;4.25;;;3.45;;
6475;SDS011;3271;51.910;5.840;2023-07-24T03:30:13;3.83;;;2.90;;
6475;SDS011;3271;51.910;5.840;2023-07-24T03:32:39;3.80;;;3.50;;
6475;SDS011;3271;51.910;5.840;2023-07-24T03:35:05;3.55;;;3.25;;
6475;SDS011;3271;51.910;5.840;2023-07-24T03:37:33;3.10;;;2.83;;
6475;SDS011;3271;51.910;5.840;2023-07-24T03:40:00;3.25;;;2.95;;
6475;SDS011;3271;51.910;5.840;2023-07-24T03:44:51;4.95;;;3.13;;
6475;SDS011;3271;51.910;5.840;2023-07-24T03:47:17;3.95;;;3.50;;
6475;SDS011;3271;51.910;5.840;2023-07-24T03:49:43;3.28;;;2.88;;
6475;SDS011;3271;51.910;5.840;2023-07-24T03:52:09;3.03;;;2.75;;
6475;SDS011;3271;51.910;5.840;2023-07-24T03:54:35;3.10;;;2.85;;
6475;SDS011;3271;51.910;5.840;2023-07-24T03:57:01;3.60;;;2.85;;
6475;SDS011;3271;51.910;5.840;2023-07-24T03:59:27;3.17;;;2.28;;
6475;SDS011;3271;51.910;5.840;2023-07-24T04:01:53;2.95;;;2.65;;
6475;SDS011;3271;51.910;5.840;2023-07-24T04:04:20;2.97;;;2.60;;
6475;SDS011;3271;51.910;5.840;2023-07-24T04:06:46;3.00;;;2.70;;
6475;SDS011;3271;51.910;5.840;2023-07-24T04:09:12;2.97;;;2.65;;
6475;SDS011;3271;51.910;5.840;2023-07-24T04:11:39;2.65;;;2.45;;
6475;SDS011;3271;51.910;5.840;2023-07-24T04:14:05;3.20;;;2.85;;
6475;SDS011;3271;51.910;5.840;2023-07-24T04:16:31;2.72;;;2.53;;
6475;SDS011;3271;51.910;5.840;2023-07-24T04:18:57;2.60;;;2.40;;
6475;SDS011;3271;51.910;5.840;2023-07-24T04:21:23;2.45;;;2.20;;
6475;SDS011;3271;51.910;5.840;2023-07-24T04:23:49;3.00;;;2.70;;
6475;SDS011;3271;51.910;5.840;2023-07-24T04:26:15;3.08;;;2.83;;
6475;SDS011;3271;51.910;5.840;2023-07-24T04:28:41;2.88;;;2.67;;
6475;SDS011;3271;51.910;5.840;2023-07-24T04:31:07;2.90;;;2.60;;
6475;SDS011;3271;51.910;5.840;2023-07-24T04:33:33;3.08;;;2.78;;
6475;SDS011;3271;51.910;5.840;2023-07-24T04:35:58;2.85;;;2.65;;
6475;SDS011;3271;51.910;5.840;2023-07-24T04:38:25;4.65;;;3.40;;
6475;SDS011;3271;51.910;5.840;2023-07-24T04:40:51;2.85;;;2.20;;
6475;SDS011;3271;51.910;5.840;2023-07-24T04:43:16;3.20;;;2.88;;
6475;SDS011;3271;51.910;5.840;2023-07-24T04:45:42;3.60;;;2.70;;
6475;SDS011;3271;51.910;5.840;2023-07-24T04:48:08;3.60;;;3.17;;
6475;SDS011;3271;51.910;5.840;2023-07-24T04:50:34;5.00;;;2.65;;
6475;SDS011;3271;51.910;5.840;2023-07-24T04:53:00;3.67;;;2.55;;
6475;SDS011;3271;51.910;5.840;2023-07-24T04:55:26;3.20;;;3.00;;
6475;SDS011;3271;51.910;5.840;2023-07-24T04:57:52;4.28;;;3.03;;
6475;SDS011;3271;51.910;5.840;2023-07-24T05:00:18;2.90;;;2.70;;
6475;SDS011;3271;51.910;5.840;2023-07-24T05:02:44;3.03;;;2.67;;
6475;SDS011;3271;51.910;5.840;2023-07-24T05:05:10;2.50;;;2.30;;
6475;SDS011;3271;51.910;5.840;2023-07-24T05:07:36;3.25;;;2.95;;
6475;SDS011;3271;51.910;5.840;2023-07-24T05:10:02;3.17;;;2.88;;
6475;SDS011;3271;51.910;5.840;2023-07-24T05:12:27;3.72;;;3.30;;
6475;SDS011;3271;51.910;5.840;2023-07-24T05:14:53;3.85;;;3.05;;
6475;SDS011;3271;51.910;5.840;2023-07-24T05:17:19;3.05;;;2.75;;
6475;SDS011;3271;51.910;5.840;2023-07-24T05:19:45;3.17;;;2.92;;
6475;SDS011;3271;51.910;5.840;2023-07-24T05:22:11;3.83;;;3.40;;
6475;SDS011;3271;51.910;5.840;2023-07-24T05:24:37;2.90;;;2.70;;
6475;SDS011;3271;51.910;5.840;2023-07-24T05:27:04;3.25;;;2.95;;
6475;SDS011;3271;51.910;5.840;2023-07-24T05:29:29;3.25;;;2.83;;
6475;SDS011;3271;51.910;5.840;2023-07-24T05:31:55;3.70;;;3.22;;
6475;SDS011;3271;51.910;5.840;2023-07-24T05:34:21;3.42;;;3.13;;
6475;SDS011;3271;51.910;5.840;2023-07-24T05:36:47;4.22;;;3.40;;
6475;SDS011;3271;51.910;5.840;2023-07-24T05:39:13;5.45;;;4.10;;
6475;SDS011;3271;51.910;5.840;2023-07-24T05:41:39;4.32;;;3.42;;
6475;SDS011;3271;51.910;5.840;2023-07-24T05:44:05;4.30;;;3.55;;
6475;SDS011;3271;51.910;5.840;2023-07-24T05:46:31;4.78;;;4.28;;
6475;SDS011;3271;51.910;5.840;2023-07-24T05:48:57;3.70;;;3.40;;
6475;SDS011;3271;51.910;5.840;2023-07-24T05:51:25;3.92;;;3.47;;
6475;SDS011;3271;51.910;5.840;2023-07-24T05:53:51;4.57;;;4.18;;
6475;SDS011;3271;51.910;5.840;2023-07-24T05:56:16;4.30;;;3.90;;
6475;SDS011;3271;51.910;5.840;2023-07-24T05:58:42;4.70;;;4.05;;
6475;SDS011;3271;51.910;5.840;2023-07-24T06:01:08;5.10;;;4.28;;
6475;SDS011;3271;51.910;5.840;2023-07-24T06:03:35;5.95;;;4.80;;
6475;SDS011;3271;51.910;5.840;2023-07-24T06:06:01;5.43;;;4.93;;
6475;SDS011;3271;51.910;5.840;2023-07-24T06:08:27;4.72;;;4.25;;
6475;SDS011;3271;51.910;5.840;2023-07-24T06:10:53;4.88;;;4.38;;
6475;SDS011;3271;51.910;5.840;2023-07-24T06:13:19;5.75;;;5.15;;
6475;SDS011;3271;51.910;5.840;2023-07-24T06:15:48;6.15;;;5.55;;
6475;SDS011;3271;51.910;5.840;2023-07-24T06:18:15;5.57;;;4.65;;
6475;SDS011;3271;51.910;5.840;2023-07-24T06:20:41;6.82;;;4.80;;
6475;SDS011;3271;51.910;5.840;2023-07-24T06:23:07;5.00;;;4.60;;
6475;SDS011;3271;51.910;5.840;2023-07-24T06:25:33;5.05;;;4.60;;
6475;SDS011;3271;51.910;5.840;2023-07-24T06:27:59;4.57;;;4.07;;
6475;SDS011;3271;51.910;5.840;2023-07-24T06:30:24;6.13;;;4.93;;
6475;SDS011;3271;51.910;5.840;2023-07-24T06:32:50;6.63;;;5.68;;
6475;SDS011;3271;51.910;5.840;2023-07-24T06:35:16;5.55;;;5.03;;
6475;SDS011;3271;51.910;5.840;2023-07-24T06:37:42;6.13;;;5.47;;
6475;SDS011;3271;51.910;5.840;2023-07-24T06:40:08;5.53;;;5.03;;
6475;SDS011;3271;51.910;5.840;2023-07-24T06:42:35;6.30;;;5.57;;
6475;SDS011;3271;51.910;5.840;2023-07-24T06:45:01;7.40;;;5.60;;
6475;SDS011;3271;51.910;5.840;2023-07-24T06:47:27;6.10;;;5.50;;
6475;SDS011;3271;51.910;5.840;2023-07-24T06:49:53;5.97;;;5.40;;
6475;SDS011;3271;51.910;5.840;2023-07-24T06:52:18;7.68;;;6.32;;
6475;SDS011;3271;51.910;5.840;2023-07-24T06:54:44;7.10;;;6.40;;
6475;SDS011;3271;51.910;5.840;2023-07-24T06:57:10;7.38;;;6.68;;
6475;SDS011;3271;51.910;5.840;2023-07-24T06:59:36;8.30;;;7.50;;
6475;SDS011;3271;51.910;5.840;2023-07-24T07:02:02;7.82;;;7.03;;
6475;SDS011;3271;51.910;5.840;2023-07-24T07:04:28;7.47;;;6.72;;
6475;SDS011;3271;51.910;5.840;2023-07-24T07:06:54;9.60;;;6.72;;
6475;SDS011;3271;51.910;5.840;2023-07-24T07:09:20;7.18;;;6.15;;
6475;SDS011;3271;51.910;5.840;2023-07-24T07:11:46;7.88;;;7.07;;
6475;SDS011;3271;51.910;5.840;2023-07-24T07:14:12;8.43;;;7.07;;
6475;SDS011;3271;51.910;5.840;2023-07-24T07:16:38;8.73;;;7.22;;
6475;SDS011;3271;51.910;5.840;2023-07-24T07:19:04;8.00;;;7.03;;
6475;SDS011;3271;51.910;5.840;2023-07-24T07:21:30;8.27;;;7.43;;
6475;SDS011;3271;51.910;5.840;2023-07-24T07:23:56;7.93;;;6.88;;
6475;SDS011;3271;51.910;5.840;2023-07-24T07:26:22;8.38;;;7.47;;
6475;SDS011;3271;51.910;5.840;2023-07-24T07:28:48;8.40;;;7.57;;
6475;SDS011;3271;51.910;5.840;2023-07-24T07:31:14;7.88;;;7.13;;
6475;SDS011;3271;51.910;5.840;2023-07-24T07:33:40;8.38;;;7.47;;
6475;SDS011;3271;51.910;5.840;2023-07-24T07:36:06;9.60;;;8.48;;
6475;SDS011;3271;51.910;5.840;2023-07-24T07:38:32;11.85;;;8.18;;
6475;SDS011;3271;51.910;5.840;2023-07-24T07:40:58;9.00;;;7.88;;
6475;SDS011;3271;51.910;5.840;2023-07-24T07:43:24;12.70;;;9.32;;
6475;SDS011;3271;51.910;5.840;2023-07-24T07:45:50;9.63;;;7.88;;
6475;SDS011;3271;51.910;5.840;2023-07-24T07:48:16;10.05;;;7.70;;
6475;SDS011;3271;51.910;5.840;2023-07-24T07:50:42;8.90;;;7.57;;
6475;SDS011;3271;51.910;5.840;2023-07-24T07:53:07;9.60;;;8.60;;
6475;SDS011;3271;51.910;5.840;2023-07-24T07:55:33;8.63;;;7.78;;
6475;SDS011;3271;51.910;5.840;2023-07-24T07:57:59;8.73;;;7.82;;
6475;SDS011;3271;51.910;5.840;2023-07-24T08:00:25;9.00;;;7.72;;
6475;SDS011;3271;51.910;5.840;2023-07-24T08:02:51;11.15;;;7.88;;
6475;SDS011;3271;51.910;5.840;2023-07-24T08:05:17;11.15;;;9.55;;
6475;SDS011;3271;51.910;5.840;2023-07-24T08:07:43;13.52;;;9.15;;
6475;SDS011;3271;51.910;5.840;2023-07-24T08:10:09;11.40;;;7.82;;
6475;SDS011;3271;51.910;5.840;2023-07-24T08:12:35;9.40;;;8.20;;
6475;SDS011;3271;51.910;5.840;2023-07-24T08:15:01;9.50;;;8.35;;
6475;SDS011;3271;51.910;5.840;2023-07-24T08:17:27;10.02;;;8.95;;
6475;SDS011;3271;51.910;5.840;2023-07-24T08:19:53;9.82;;;8.60;;
6475;SDS011;3271;51.910;5.840;2023-07-24T08:22:19;10.57;;;8.15;;
6475;SDS011;3271;51.910;5.840;2023-07-24T08:24:45;9.13;;;8.23;;
6475;SDS011;3271;51.910;5.840;2023-07-24T08:27:12;9.30;;;7.72;;
6475;SDS011;3271;51.910;5.840;2023-07-24T08:29:37;8.73;;;7.55;;
6475;SDS011;3271;51.910;5.840;2023-07-24T08:32:04;9.32;;;8.27;;
6475;SDS011;3271;51.910;5.840;2023-07-24T08:34:30;9.38;;;8.45;;
6475;SDS011;3271;51.910;5.840;2023-07-24T08:36:56;9.52;;;8.20;;
6475;SDS011;3271;51.910;5.840;2023-07-24T08:39:22;8.75;;;7.88;;
6475;SDS011;3271;51.910;5.840;2023-07-24T08:41:48;8.02;;;7.22;;
6475;SDS011;3271;51.910;5.840;2023-07-24T08:44:14;9.60;;;8.68;;
6475;SDS011;3271;51.910;5.840;2023-07-24T08:46:40;10.20;;;8.68;;
6475;SDS011;3271;51.910;5.840;2023-07-24T08:49:13;10.00;;;8.77;;
6475;SDS011;3271;51.910;5.840;2023-07-24T08:51:42;9.05;;;8.15;;
6475;SDS011;3271;51.910;5.840;2023-07-24T08:54:09;11.40;;;9.13;;
6475;SDS011;3271;51.910;5.840;2023-07-24T08:56:36;8.95;;;8.15;;
6475;SDS011;3271;51.910;5.840;2023-07-24T08:59:03;10.25;;;8.68;;
6475;SDS011;3271;51.910;5.840;2023-07-24T09:01:29;11.27;;;8.20;;
6475;SDS011;3271;51.910;5.840;2023-07-24T09:03:55;8.35;;;7.65;;
6475;SDS011;3271;51.910;5.840;2023-07-24T09:06:21;9.25;;;8.27;;
6475;SDS011;3271;51.910;5.840;2023-07-24T09:08:48;10.90;;;9.18;;
6475;SDS011;3271;51.910;5.840;2023-07-24T09:11:14;8.27;;;7.43;;
6475;SDS011;3271;51.910;5.840;2023-07-24T09:13:41;8.57;;;7.72;;
6475;SDS011;3271;51.910;5.840;2023-07-24T09:16:07;9.13;;;8.20;;
6475;SDS011;3271;51.910;5.840;2023-07-24T09:18:40;9.38;;;8.18;;
6475;SDS011;3271;51.910;5.840;2023-07-24T09:21:06;8.60;;;7.68;;
6475;SDS011;3271;51.910;5.840;2023-07-24T09:23:32;9.23;;;8.35;;
6475;SDS011;3271;51.910;5.840;2023-07-24T09:25:58;8.40;;;7.35;;
6475;SDS011;3271;51.910;5.840;2023-07-24T09:28:24;9.02;;;8.13;;
6475;SDS011;3271;51.910;5.840;2023-07-24T09:30:54;7.15;;;6.45;;
6475;SDS011;3271;51.910;5.840;2023-07-24T09:33:21;7.80;;;6.60;;
6475;SDS011;3271;51.910;5.840;2023-07-24T09:35:57;8.00;;;6.53;;
6475;SDS011;3271;51.910;5.840;2023-07-24T09:38:24;8.80;;;7.70;;
6475;SDS011;3271;51.910;5.840;2023-07-24T09:40:49;8.00;;;7.28;;
6475;SDS011;3271;51.910;5.840;2023-07-24T09:43:18;8.25;;;7.40;;
6475;SDS011;3271;51.910;5.840;2023-07-24T09:45:45;7.65;;;6.80;;
6475;SDS011;3271;51.910;5.840;2023-07-24T09:48:11;7.18;;;6.43;;
6475;SDS011;3271;51.910;5.840;2023-07-24T09:50:39;8.75;;;7.85;;
6475;SDS011;3271;51.910;5.840;2023-07-24T09:53:05;6.85;;;6.05;;
6475;SDS011;3271;51.910;5.840;2023-07-24T09:55:37;8.07;;;7.38;;
6475;SDS011;3271;51.910;5.840;2023-07-24T09:58:03;28.15;;;23.17;;
6475;SDS011;3271;51.910;5.840;2023-07-24T10:00:37;8.02;;;7.10;;
6475;SDS011;3271;51.910;5.840;2023-07-24T10:03:03;7.32;;;6.55;;
6475;SDS011;3271;51.910;5.840;2023-07-24T10:05:29;6.72;;;6.10;;
6475;SDS011;3271;51.910;5.840;2023-07-24T10:07:56;7.47;;;6.43;;
6475;SDS011;3271;51.910;5.840;2023-07-24T10:10:23;7.82;;;5.93;;
6475;SDS011;3271;51.910;5.840;2023-07-24T10:12:50;7.15;;;6.45;;
6475;SDS011;3271;51.910;5.840;2023-07-24T10:15:16;7.38;;;6.68;;
6475;SDS011;3271;51.910;5.840;2023-07-24T10:17:42;7.70;;;7.00;;
6475;SDS011;3271;51.910;5.840;2023-07-24T10:20:09;8.02;;;7.20;;
6475;SDS011;3271;51.910;5.840;2023-07-24T10:22:36;8.10;;;6.68;;
6475;SDS011;3271;51.910;5.840;2023-07-24T10:25:06;8.30;;;7.47;;
6475;SDS011;3271;51.910;5.840;2023-07-24T10:27:35;7.03;;;6.43;;
6475;SDS011;3271;51.910;5.840;2023-07-24T10:30:02;8.20;;;7.40;;
6475;SDS011;3271;51.910;5.840;2023-07-24T10:32:28;8.30;;;7.43;;
6475;SDS011;3271;51.910;5.840;2023-07-24T10:34:59;6.78;;;6.20;;
6475;SDS011;3271;51.910;5.840;2023-07-24T10:37:35;7.28;;;6.68;;
6475;SDS011;3271;51.910;5.840;2023-07-24T10:40:02;8.75;;;7.90;;
6475;SDS011;3271;51.910;5.840;2023-07-24T10:42:28;7.80;;;7.10;;
6475;SDS011;3271;51.910;5.840;2023-07-24T10:45:37;8.25;;;6.97;;
6475;SDS011;3271;51.910;5.840;2023-07-24T10:47:47;9.95;;;8.95;;
6475;SDS011;3271;51.910;5.840;2023-07-24T10:50:13;8.02;;;7.32;;
6475;SDS011;3271;51.910;5.840;2023-07-24T10:52:39;8.25;;;7.45;;
6475;SDS011;3271;51.910;5.840;2023-07-24T10:55:06;10.82;;;9.73;;
6475;SDS011;3271;51.910;5.840;2023-07-24T10:57:32;9.25;;;7.72;;
6475;SDS011;3271;51.910;5.840;2023-07-24T10:59:59;7.45;;;6.85;;
6475;SDS011;3271;51.910;5.840;2023-07-24T11:02:25;8.85;;;7.95;;
6475;SDS011;3271;51.910;5.840;2023-07-24T11:04:51;8.95;;;8.05;;
6475;SDS011;3271;51.910;5.840;2023-07-24T11:07:17;7.88;;;7.18;;
6475;SDS011;3271;51.910;5.840;2023-07-24T11:09:43;8.15;;;7.45;;
6475;SDS011;3271;51.910;5.840;2023-07-24T11:12:12;8.35;;;7.53;;
6475;SDS011;3271;51.910;5.840;2023-07-24T11:14:48;8.40;;;7.63;;
6475;SDS011;3271;51.910;5.840;2023-07-24T11:17:14;7.03;;;6.32;;
6475;SDS011;3271;51.910;5.840;2023-07-24T11:19:40;9.65;;;7.47;;
6475;SDS011;3271;51.910;5.840;2023-07-24T11:22:07;8.52;;;7.20;;
6475;SDS011;3271;51.910;5.840;2023-07-24T11:24:41;7.82;;;6.97;;
6475;SDS011;3271;51.910;5.840;2023-07-24T11:27:12;7.65;;;6.20;;
6475;SDS011;3271;51.910;5.840;2023-07-24T11:29:38;8.20;;;7.43;;
6475;SDS011;3271;51.910;5.840;2023-07-24T11:32:05;8.93;;;8.02;;
6475;SDS011;3271;51.910;5.840;2023-07-24T11:34:31;11.50;;;7.10;;
6475;SDS011;3271;51.910;5.840;2023-07-24T11:36:57;8.25;;;7.45;;
6475;SDS011;3271;51.910;5.840;2023-07-24T11:39:23;6.45;;;5.65;;
6475;SDS011;3271;51.910;5.840;2023-07-24T11:41:49;7.88;;;6.88;;
6475;SDS011;3271;51.910;5.840;2023-07-24T11:44:15;9.68;;;8.85;;
6475;SDS011;3271;51.910;5.840;2023-07-24T11:46:42;9.43;;;8.05;;
6475;SDS011;3271;51.910;5.840;2023-07-24T11:49:08;7.35;;;6.43;;
6475;SDS011;3271;51.910;5.840;2023-07-24T11:51:36;10.20;;;8.20;;
6475;SDS011;3271;51.910;5.840;2023-07-24T11:54:08;10.90;;;7.82;;
6475;SDS011;3271;51.910;5.840;2023-07-24T11:56:36;8.68;;;7.78;;
6475;SDS011;3271;51.910;5.840;2023-07-24T11:59:09;8.27;;;7.28;;
6475;SDS011;3271;51.910;5.840;2023-07-24T12:01:34;8.20;;;7.40;;
6475;SDS011;3271;51.910;5.840;2023-07-24T12:04:00;9.18;;;6.93;;
6475;SDS011;3271;51.910;5.840;2023-07-24T12:06:26;8.38;;;7.32;;
6475;SDS011;3271;51.910;5.840;2023-07-24T12:08:52;8.40;;;6.82;;
6475;SDS011;3271;51.910;5.840;2023-07-24T12:11:26;7.00;;;6.45;;
6475;SDS011;3271;51.910;5.840;2023-07-24T12:13:52;7.85;;;7.03;;
6475;SDS011;3271;51.910;5.840;2023-07-24T12:16:18;9.68;;;8.20;;
6475;SDS011;3271;51.910;5.840;2023-07-24T12:18:44;8.27;;;7.40;;
6475;SDS011;3271;51.910;5.840;2023-07-24T12:21:10;7.45;;;6.63;;
6475;SDS011;3271;51.910;5.840;2023-07-24T12:23:36;8.90;;;7.30;;
6475;SDS011;3271;51.910;5.840;2023-07-24T12:26:02;7.95;;;6.82;;
6475;SDS011;3271;51.910;5.840;2023-07-24T12:28:28;6.65;;;5.78;;
6475;SDS011;3271;51.910;5.840;2023-07-24T12:30:54;10.00;;;5.55;;
6475;SDS011;3271;51.910;5.840;2023-07-24T12:33:20;7.57;;;5.68;;
6475;SDS011;3271;51.910;5.840;2023-07-24T12:35:48;7.22;;;5.78;;
6475;SDS011;3271;51.910;5.840;2023-07-24T12:38:14;8.10;;;5.88;;
6475;SDS011;3271;51.910;5.840;2023-07-24T12:40:40;5.82;;;5.20;;
6475;SDS011;3271;51.910;5.840;2023-07-24T12:43:06;4.68;;;4.28;;
6475;SDS011;3271;51.910;5.840;2023-07-24T12:45:32;6.95;;;5.18;;
6475;SDS011;3271;51.910;5.840;2023-07-24T12:47:58;6.95;;;5.40;;
6475;SDS011;3271;51.910;5.840;2023-07-24T12:50:24;8.15;;;6.22;;
6475;SDS011;3271;51.910;5.840;2023-07-24T12:52:50;6.47;;;5.88;;
6475;SDS011;3271;51.910;5.840;2023-07-24T12:55:16;7.82;;;5.53;;
6475;SDS011;3271;51.910;5.840;2023-07-24T12:57:42;7.45;;;5.63;;
6475;SDS011;3271;51.910;5.840;2023-07-24T13:00:08;7.55;;;4.88;;
6475;SDS011;3271;51.910;5.840;2023-07-24T13:02:34;8.02;;;5.82;;
6475;SDS011;3271;51.910;5.840;2023-07-24T13:05:00;6.78;;;5.05;;
6475;SDS011;3271;51.910;5.840;2023-07-24T13:07:26;6.78;;;6.10;;
6475;SDS011;3271;51.910;5.840;2023-07-24T13:09:53;7.40;;;5.70;;
6475;SDS011;3271;51.910;5.840;2023-07-24T13:12:19;8.30;;;5.28;;
6475;SDS011;3271;51.910;5.840;2023-07-24T13:14:45;8.23;;;6.30;;
6475;SDS011;3271;51.910;5.840;2023-07-24T13:17:11;5.75;;;4.90;;
6475;SDS011;3271;51.910;5.840;2023-07-24T13:19:37;7.82;;;4.65;;
6475;SDS011;3271;51.910;5.840;2023-07-24T13:22:03;6.32;;;4.72;;
6475;SDS011;3271;51.910;5.840;2023-07-24T13:24:29;6.38;;;4.40;;
6475;SDS011;3271;51.910;5.840;2023-07-24T13:26:55;5.65;;;4.38;;
6475;SDS011;3271;51.910;5.840;2023-07-24T13:29:21;6.35;;;4.40;;
6475;SDS011;3271;51.910;5.840;2023-07-24T13:31:48;4.63;;;3.72;;
6475;SDS011;3271;51.910;5.840;2023-07-24T13:34:15;4.82;;;3.38;;
6475;SDS011;3271;51.910;5.840;2023-07-24T13:36:44;4.45;;;3.40;;
6475;SDS011;3271;51.910;5.840;2023-07-24T13:39:10;3.67;;;3.35;;
6475;SDS011;3271;51.910;5.840;2023-07-24T13:41:36;4.65;;;3.72;;
6475;SDS011;3271;51.910;5.840;2023-07-24T13:44:03;3.58;;;3.08;;
6475;SDS011;3271;51.910;5.840;2023-07-24T13:46:29;5.75;;;3.65;;
6475;SDS011;3271;51.910;5.840;2023-07-24T13:48:57;3.63;;;3.33;;
6475;SDS011;3271;51.910;5.840;2023-07-24T13:51:23;5.28;;;3.78;;
6475;SDS011;3271;51.910;5.840;2023-07-24T13:53:49;5.53;;;4.00;;
6475;SDS011;3271;51.910;5.840;2023-07-24T13:56:17;5.53;;;3.70;;
6475;SDS011;3271;51.910;5.840;2023-07-24T13:58:43;6.10;;;4.20;;
6475;SDS011;3271;51.910;5.840;2023-07-24T14:01:09;5.05;;;3.88;;
6475;SDS011;3271;51.910;5.840;2023-07-24T14:03:35;5.80;;;5.05;;
6475;SDS011;3271;51.910;5.840;2023-07-24T14:06:01;6.20;;;5.70;;
6475;SDS011;3271;51.910;5.840;2023-07-24T14:08:27;5.55;;;4.95;;
6475;SDS011;3271;51.910;5.840;2023-07-24T14:10:53;5.70;;;5.07;;
6475;SDS011;3271;51.910;5.840;2023-07-24T14:13:19;5.47;;;4.95;;
6475;SDS011;3271;51.910;5.840;2023-07-24T14:15:45;7.75;;;6.00;;
6475;SDS011;3271;51.910;5.840;2023-07-24T14:18:11;6.78;;;6.07;;
6475;SDS011;3271;51.910;5.840;2023-07-24T14:20:37;5.60;;;5.05;;
6475;SDS011;3271;51.910;5.840;2023-07-24T14:23:05;6.78;;;5.60;;
6475;SDS011;3271;51.910;5.840;2023-07-24T14:25:31;6.57;;;5.28;;
6475;SDS011;3271;51.910;5.840;2023-07-24T14:27:57;6.50;;;4.97;;
6475;SDS011;3271;51.910;5.840;2023-07-24T14:30:22;6.50;;;4.97;;
6475;SDS011;3271;51.910;5.840;2023-07-24T14:32:48;5.88;;;4.38;;
6475;SDS011;3271;51.910;5.840;2023-07-24T14:35:15;5.25;;;4.68;;
6475;SDS011;3271;51.910;5.840;2023-07-24T14:37:41;8.50;;;5.65;;
6475;SDS011;3271;51.910;5.840;2023-07-24T14:40:09;10.02;;;6.22;;
6475;SDS011;3271;51.910;5.840;2023-07-24T14:42:36;7.40;;;5.80;;
6475;SDS011;3271;51.910;5.840;2023-07-24T14:45:02;9.18;;;6.38;;
6475;SDS011;3271;51.910;5.840;2023-07-24T14:47:28;8.02;;;7.13;;
6475;SDS011;3271;51.910;5.840;2023-07-24T14:49:54;7.95;;;7.22;;
6475;SDS011;3271;51.910;5.840;2023-07-24T14:52:20;9.98;;;6.78;;
6475;SDS011;3271;51.910;5.840;2023-07-24T14:54:46;7.75;;;6.78;;
6475;SDS011;3271;51.910;5.840;2023-07-24T14:57:12;7.10;;;6.40;;
6475;SDS011;3271;51.910;5.840;2023-07-24T14:59:38;8.02;;;7.20;;
6475;SDS011;3271;51.910;5.840;2023-07-24T15:02:04;9.35;;;7.30;;
6475;SDS011;3271;51.910;5.840;2023-07-24T15:04:30;12.18;;;8.30;;
6475;SDS011;3271;51.910;5.840;2023-07-24T15:06:56;8.05;;;6.95;;
6475;SDS011;3271;51.910;5.840;2023-07-24T15:09:22;7.32;;;6.40;;
6475;SDS011;3271;51.910;5.840;2023-07-24T15:11:48;10.82;;;6.82;;
6475;SDS011;3271;51.910;5.840;2023-07-24T15:14:14;6.80;;;6.10;;
6475;SDS011;3271;51.910;5.840;2023-07-24T15:16:40;7.20;;;5.50;;
6475;SDS011;3271;51.910;5.840;2023-07-24T15:19:06;8.50;;;6.63;;